createdAt,value
2019-02-24T00:02:17.641Z,95745.20
2019-02-24T00:04:46.325Z,95743.41
2019-02-24T00:07:14.996Z,95737.44
2019-02-24T00:09:43.623Z,95739.20
2019-02-24T00:12:12.255Z,95736.22
2019-02-24T00:14:40.904Z,95738.03
2019-02-24T00:17:09.530Z,95733.58
2019-02-24T00:19:38.226Z,95731.53
2019-02-24T00:22:06.883Z,95735.37
2019-02-24T00:24:35.514Z,95739.97
2019-02-24T00:27:04.140Z,95733.52
2019-02-24T00:29:32.799Z,95734.91
2019-02-24T00:32:01.440Z,95740.73
2019-02-24T00:34:30.065Z,95743.37
2019-02-24T00:36:58.733Z,95744.71
2019-02-24T00:39:27.353Z,95740.77
2019-02-24T00:41:55.968Z,95746.41
2019-02-24T00:44:24.694Z,95747.20
2019-02-24T00:46:53.316Z,95738.25
2019-02-24T00:49:22.020Z,95740.22
2019-02-24T00:51:50.682Z,95732.58
2019-02-24T00:54:19.304Z,95731.63
2019-02-24T00:56:47.925Z,95734.84
2019-02-24T00:59:16.667Z,95738.47
2019-02-24T01:01:45.308Z,95732.58
2019-02-24T01:04:13.924Z,95738.80
2019-02-24T01:06:42.597Z,95742.56
2019-02-24T01:09:11.226Z,95746.73
2019-02-24T01:11:39.857Z,95737.22
2019-02-24T01:14:08.533Z,95736.03
2019-02-24T01:16:37.463Z,95735.64
2019-02-24T01:19:06.093Z,95736.70
2019-02-24T01:21:34.746Z,95734.77
2019-02-24T01:24:03.376Z,95733.98
2019-02-24T01:26:31.997Z,95730.58
2019-02-24T01:29:00.663Z,95734.16
2019-02-24T01:31:29.305Z,95733.72
2019-02-24T01:33:57.908Z,95737.06
2019-02-24T01:36:26.572Z,95739.05
2019-02-24T01:38:55.194Z,95732.42
2019-02-24T01:41:23.821Z,95741.13
2019-02-24T01:43:52.496Z,95745.60
2019-02-24T01:46:21.127Z,95739.97
2019-02-24T01:48:50.403Z,95745.85
2019-02-24T01:51:19.062Z,95741.77
2019-02-24T01:53:47.697Z,95740.52
2019-02-24T01:56:16.327Z,95736.64
2019-02-24T01:58:44.989Z,95741.63
2019-02-24T02:01:13.616Z,95736.70
2019-02-24T02:03:42.236Z,95733.18
2019-02-24T02:06:10.899Z,95733.34
2019-02-24T02:08:39.519Z,95723.20
2019-02-24T02:11:08.352Z,95726.31
2019-02-24T02:13:37.016Z,95717.79
2019-02-24T02:16:05.635Z,95718.69
2019-02-24T02:18:34.270Z,95711.53
2019-02-24T02:21:03.020Z,95709.06
2019-02-24T02:23:31.650Z,95706.58
2019-02-24T02:26:00.277Z,95703.05
2019-02-24T02:28:29.002Z,95693.10
2019-02-24T02:30:57.626Z,95695.88
2019-02-24T02:33:26.249Z,95693.91
2019-02-24T02:35:57.189Z,95697.16
2019-02-24T02:38:25.816Z,95692.03
2019-02-24T02:40:54.449Z,95691.88
2019-02-24T02:43:23.114Z,95699.45
2019-02-24T02:45:51.769Z,95691.95
2019-02-24T02:48:20.400Z,95697.34
2019-02-24T02:50:49.164Z,95698.32
2019-02-24T02:53:17.780Z,95696.35
2019-02-24T02:55:46.527Z,95704.20
2019-02-24T02:58:15.199Z,95705.77
2019-02-24T03:00:43.816Z,95704.35
2019-02-24T03:03:12.376Z,95698.50
2019-02-24T03:05:42.679Z,95706.65
2019-02-24T03:08:13.173Z,95701.73
2019-02-24T03:10:41.864Z,95700.14
2019-02-24T03:13:10.448Z,95708.53
2019-02-24T03:15:39.084Z,95706.68
2019-02-24T03:18:07.717Z,95705.96
2019-02-24T03:20:36.454Z,95705.43
2019-02-24T03:23:05.103Z,95703.66
2019-02-24T03:25:33.714Z,95702.92
2019-02-24T03:28:02.378Z,95706.03
2019-02-24T03:30:31.023Z,95710.96
2019-02-24T03:32:59.630Z,95708.78
2019-02-24T03:35:28.301Z,95711.93
2019-02-24T03:37:56.928Z,95713.66
2019-02-24T03:40:25.566Z,95708.33
2019-02-24T03:42:54.229Z,95711.50
2019-02-24T03:45:22.922Z,95711.79
2019-02-24T03:47:51.552Z,95710.06
2019-02-24T03:50:20.219Z,95708.11
2019-02-24T03:52:49.675Z,95699.88
2019-02-24T03:55:18.304Z,95705.73
2019-02-24T03:57:46.966Z,95699.22
2019-02-24T04:00:15.594Z,95701.38
2019-02-24T04:02:44.216Z,95699.37
2019-02-24T04:05:12.875Z,95696.66
2019-02-24T04:07:41.573Z,95699.11
2019-02-24T04:10:10.223Z,95701.28
2019-02-24T04:12:38.874Z,95700.52
2019-02-24T04:15:07.573Z,95703.31
2019-02-24T04:17:36.204Z,95702.66
2019-02-24T04:20:05.459Z,95695.54
2019-02-24T04:22:34.101Z,95695.24
2019-02-24T04:25:02.720Z,95691.34
2019-02-24T04:27:31.390Z,95686.50
2019-02-24T04:30:00.004Z,95689.08
2019-02-24T04:32:28.707Z,95678.48
2019-02-24T04:34:57.308Z,95683.36
2019-02-24T04:37:25.940Z,95680.92
2019-02-24T04:39:54.565Z,95679.73
2019-02-24T04:42:23.226Z,95680.65
2019-02-24T04:44:51.853Z,95673.41
2019-02-24T04:47:20.551Z,95676.03
2019-02-24T04:49:49.211Z,95675.18
2019-02-24T04:52:17.840Z,95674.29
2019-02-24T04:54:46.461Z,95667.80
2019-02-24T04:57:15.122Z,95660.36
2019-02-24T04:59:43.759Z,95668.61
2019-02-24T05:02:12.401Z,95664.48
2019-02-24T05:04:41.098Z,95672.58
2019-02-24T05:07:09.714Z,95666.75
2019-02-24T05:09:38.343Z,95668.52
2019-02-24T05:12:07.010Z,95680.22
2019-02-24T05:14:35.642Z,95686.73
2019-02-24T05:17:04.337Z,95693.66
2019-02-24T05:19:32.994Z,95697.00
2019-02-24T05:22:01.627Z,95704.95
2019-02-24T05:24:30.253Z,95698.45
2019-02-24T05:26:58.914Z,95698.30
2019-02-24T05:29:27.538Z,95707.23
2019-02-24T05:31:56.169Z,95713.16
2019-02-24T05:34:24.754Z,95728.17
2019-02-24T05:36:53.381Z,95726.31
2019-02-24T05:39:22.010Z,95728.28
2019-02-24T05:41:50.675Z,95730.52
2019-02-24T05:44:19.301Z,95732.08
2019-02-24T05:46:47.997Z,95727.44
2019-02-24T05:49:16.656Z,95728.05
2019-02-24T05:51:45.279Z,95736.42
2019-02-24T05:54:13.905Z,95731.84
2019-02-24T05:56:42.562Z,95742.59
2019-02-24T05:59:11.277Z,95747.55
2019-02-24T06:01:39.899Z,95743.30
2019-02-24T06:04:08.644Z,95746.52
2019-02-24T06:06:37.275Z,95747.13
2019-02-24T06:09:07.805Z,95749.08
2019-02-24T06:11:36.479Z,95747.98
2019-02-24T06:14:05.105Z,95749.55
2019-02-24T06:16:33.734Z,95749.47
2019-02-24T06:19:02.395Z,95753.76
2019-02-24T06:21:31.014Z,95758.35
2019-02-24T06:23:59.654Z,95762.73
2019-02-24T06:26:30.141Z,95762.56
2019-02-24T06:28:58.654Z,95770.69
2019-02-24T06:31:27.289Z,95774.72
2019-02-24T06:33:55.965Z,95766.17
2019-02-24T06:36:24.658Z,95774.95
2019-02-24T06:38:53.278Z,95769.94
2019-02-24T06:41:21.870Z,95769.94
2019-02-24T06:43:50.486Z,95772.23
2019-02-24T06:46:19.112Z,95763.79
2019-02-24T06:48:47.783Z,95775.50
2019-02-24T06:51:16.479Z,95774.00
2019-02-24T06:53:45.173Z,95775.75
2019-02-24T06:56:13.761Z,95777.66
2019-02-24T06:58:42.384Z,95775.88
2019-02-24T07:01:11.013Z,95780.39
2019-02-24T07:03:39.676Z,95791.04
2019-02-24T07:06:08.302Z,95786.94
2019-02-24T07:08:36.927Z,95789.47
2019-02-24T07:11:05.589Z,95792.46
2019-02-24T07:13:34.216Z,95796.11
2019-02-24T07:16:02.842Z,95796.67
2019-02-24T07:18:31.517Z,95799.00
2019-02-24T07:21:00.213Z,95797.17
2019-02-24T07:23:28.848Z,95790.97
2019-02-24T07:25:57.518Z,95795.69
2019-02-24T07:28:26.142Z,95790.30
2019-02-24T07:30:54.695Z,95783.77
2019-02-24T07:33:23.354Z,95793.28
2019-02-24T07:35:52.056Z,95790.52
2019-02-24T07:38:20.610Z,95787.83
2019-02-24T07:40:49.287Z,95798.68
2019-02-24T07:43:17.918Z,95795.20
2019-02-24T07:45:46.538Z,95795.80
2019-02-24T07:48:15.228Z,95788.95
2019-02-24T07:50:43.860Z,95793.64
2019-02-24T07:53:12.553Z,95793.68
2019-02-24T07:55:41.207Z,95797.97
2019-02-24T07:58:09.764Z,95786.00
2019-02-24T08:00:38.403Z,95795.06
2019-02-24T08:03:07.064Z,95789.41
2019-02-24T08:05:35.681Z,95791.96
2019-02-24T08:08:04.391Z,95795.93
2019-02-24T08:10:33.128Z,95791.98
2019-02-24T08:13:01.679Z,95791.47
2019-02-24T08:15:30.378Z,95796.81
2019-02-24T08:17:59.053Z,95794.81
2019-02-24T08:20:27.687Z,95787.86
2019-02-24T08:22:56.380Z,95791.09
2019-02-24T08:25:25.118Z,95788.20
2019-02-24T08:27:55.571Z,95792.45
2019-02-24T08:30:24.315Z,95787.28
2019-02-24T08:32:52.975Z,95797.52
2019-02-24T08:35:21.670Z,95792.94
2019-02-24T08:37:50.303Z,95792.78
2019-02-24T08:40:19.041Z,95789.41
2019-02-24T08:42:47.663Z,95799.68
2019-02-24T08:45:16.376Z,95794.75
2019-02-24T08:47:45.030Z,95788.60
2019-02-24T08:50:13.660Z,95793.35
2019-02-24T08:52:42.379Z,95792.18
2019-02-24T08:55:11.051Z,95788.33
2019-02-24T08:57:39.755Z,95794.45
2019-02-24T09:00:10.943Z,95788.54
2019-02-24T09:02:40.539Z,95783.86
2019-02-24T09:05:09.163Z,95782.92
2019-02-24T09:07:37.861Z,95774.42
2019-02-24T09:10:08.835Z,95781.23
2019-02-24T09:12:37.544Z,95784.66
2019-02-24T09:15:09.077Z,95776.22
2019-02-24T09:17:37.810Z,95774.64
2019-02-24T09:20:09.542Z,95782.56
2019-02-24T09:22:38.242Z,95776.02
2019-02-24T09:25:08.212Z,95776.05
2019-02-24T09:27:36.904Z,95776.81
2019-02-24T09:30:08.439Z,95768.97
2019-02-24T09:32:37.228Z,95768.83
2019-02-24T09:35:07.256Z,95767.03
2019-02-24T09:37:35.956Z,95765.36
2019-02-24T09:40:07.128Z,95761.40
2019-02-24T09:42:35.833Z,95762.53
2019-02-24T09:45:06.526Z,95764.70
2019-02-24T09:47:35.266Z,95760.33
2019-02-24T09:50:04.693Z,95758.90
2019-02-24T09:52:33.397Z,95760.05
2019-02-24T09:55:02.128Z,95761.12
2019-02-24T09:57:30.828Z,95752.38
2019-02-24T09:59:59.450Z,95748.23
2019-02-24T10:02:28.184Z,95755.98
2019-02-24T10:04:57.703Z,95747.45
2019-02-24T10:07:26.330Z,95739.02
2019-02-24T10:09:54.993Z,95738.38
2019-02-24T10:12:23.684Z,95730.24
2019-02-24T10:14:52.385Z,95723.69
2019-02-24T10:17:21.042Z,95726.14
2019-02-24T10:19:49.741Z,95725.78
2019-02-24T10:22:18.357Z,95714.85
2019-02-24T10:24:47.095Z,95715.38
2019-02-24T10:27:15.806Z,95706.58
2019-02-24T10:29:44.420Z,95701.59
2019-02-24T10:32:13.155Z,95696.73
2019-02-24T10:34:41.856Z,95693.91
2019-02-24T10:37:10.484Z,95683.14
2019-02-24T10:39:39.219Z,95681.63
2019-02-24T10:42:07.918Z,95682.58
2019-02-24T10:44:36.557Z,95681.59
2019-02-24T10:47:05.288Z,95680.66
2019-02-24T10:49:33.986Z,95677.50
2019-02-24T10:52:02.681Z,95675.14
2019-02-24T10:54:31.411Z,95678.03
2019-02-24T10:57:00.103Z,95684.11
2019-02-24T10:59:28.800Z,95678.51
2019-02-24T11:01:57.565Z,95681.55
2019-02-24T11:04:26.267Z,95675.84
2019-02-24T11:06:55.728Z,95676.66
2019-02-24T11:09:24.695Z,95678.27
2019-02-24T11:11:53.414Z,95667.34
2019-02-24T11:14:22.110Z,95672.01
2019-02-24T11:16:50.859Z,95667.33
2019-02-24T11:19:19.563Z,95665.94
2019-02-24T11:21:48.206Z,95656.87
2019-02-24T11:24:16.939Z,95659.11
2019-02-24T11:26:45.640Z,95661.05
2019-02-24T11:29:14.275Z,95658.02
2019-02-24T11:31:43.029Z,95654.16
2019-02-24T11:34:11.722Z,95649.25
2019-02-24T11:36:40.412Z,95645.94
2019-02-24T11:39:09.173Z,95642.19
2019-02-24T11:41:37.868Z,95635.03
2019-02-24T11:44:06.569Z,95633.66
2019-02-24T11:46:35.230Z,95632.03
2019-02-24T11:49:03.919Z,95625.64
2019-02-24T11:51:32.629Z,95625.78
2019-02-24T11:54:01.381Z,95623.73
2019-02-24T11:56:30.094Z,95615.03
2019-02-24T11:58:58.718Z,95609.39
2019-02-24T12:01:27.450Z,95614.26
2019-02-24T12:03:56.158Z,95605.74
2019-02-24T12:06:24.865Z,95598.33
2019-02-24T12:08:54.441Z,95599.95
2019-02-24T12:11:23.143Z,95593.49
2019-02-24T12:13:51.845Z,95595.48
2019-02-24T12:16:20.575Z,95591.23
2019-02-24T12:18:49.286Z,95599.80
2019-02-24T12:21:17.982Z,95593.46
2019-02-24T12:23:46.729Z,95582.11
2019-02-24T12:26:15.438Z,95588.91
2019-02-24T12:28:44.060Z,95587.44
2019-02-24T12:31:12.794Z,95593.17
2019-02-24T12:33:41.512Z,95599.49
2019-02-24T12:36:10.157Z,95591.25
2019-02-24T12:38:38.894Z,95589.31
2019-02-24T12:41:07.595Z,95593.48
2019-02-24T12:43:36.227Z,95600.33
2019-02-24T12:46:04.972Z,95588.25
2019-02-24T12:48:33.668Z,95597.84
2019-02-24T12:51:02.376Z,95598.19
2019-02-24T12:53:31.121Z,95594.23
2019-02-24T12:55:59.828Z,95587.09
2019-02-24T12:58:28.538Z,95586.80
2019-02-24T13:00:57.271Z,95583.60
2019-02-24T13:03:25.988Z,95588.34
2019-02-24T13:05:54.623Z,95587.77
2019-02-24T13:08:23.354Z,95583.38
2019-02-24T13:10:52.904Z,95579.14
2019-02-24T13:13:21.604Z,95584.72
2019-02-24T13:15:50.591Z,95585.63
2019-02-24T13:18:19.284Z,95584.78
2019-02-24T13:20:47.981Z,95577.85
2019-02-24T13:23:18.205Z,95597.72
2019-02-24T13:25:46.912Z,95587.46
2019-02-24T13:28:15.679Z,95589.20
2019-02-24T13:30:44.411Z,95588.03
2019-02-24T13:33:13.111Z,95588.17
2019-02-24T13:35:41.817Z,95585.30
2019-02-24T13:38:10.554Z,95587.61
2019-02-24T13:40:39.301Z,95585.56
2019-02-24T13:43:08.001Z,95587.53
2019-02-24T13:45:36.660Z,95587.31
2019-02-24T13:48:05.357Z,95590.92
2019-02-24T13:50:34.053Z,95582.98
2019-02-24T13:53:02.794Z,95591.41
2019-02-24T13:55:31.517Z,95591.33
2019-02-24T13:58:00.227Z,95580.81
2019-02-24T14:00:28.973Z,95589.70
2019-02-24T14:02:57.624Z,95594.55
2019-02-24T14:05:26.317Z,95584.89
2019-02-24T14:07:55.107Z,95588.77
2019-02-24T14:10:23.814Z,95579.41
2019-02-24T14:12:53.361Z,95581.80
2019-02-24T14:15:22.207Z,95579.23
2019-02-24T14:17:50.930Z,95586.55
2019-02-24T14:20:19.721Z,95578.88
2019-02-24T14:22:48.462Z,95583.64
2019-02-24T14:25:17.664Z,95578.57
2019-02-24T14:27:46.378Z,95579.91
2019-02-24T14:30:18.664Z,95584.19
2019-02-24T14:32:47.360Z,95588.84
2019-02-24T14:35:23.511Z,95586.66
2019-02-24T14:37:52.251Z,95587.77
2019-02-24T14:40:20.954Z,95589.53
2019-02-24T14:42:49.639Z,95591.80
2019-02-24T14:45:20.641Z,95584.78
2019-02-24T14:47:49.345Z,95583.02
2019-02-24T14:50:18.043Z,95578.14
2019-02-24T14:52:46.773Z,95579.82
2019-02-24T14:55:15.966Z,95583.98
2019-02-24T14:57:44.700Z,95587.27
2019-02-24T15:00:18.743Z,95579.59
2019-02-24T15:02:47.546Z,95582.92
2019-02-24T15:05:16.924Z,95585.92
2019-02-24T15:07:45.769Z,95577.59
2019-02-24T15:10:17.375Z,95584.56
2019-02-24T15:12:48.675Z,95578.70
2019-02-24T15:15:32.509Z,95579.87
2019-02-24T15:17:56.924Z,95574.54
2019-02-24T15:20:25.595Z,95573.77
2019-02-24T15:22:54.327Z,95579.83
2019-02-24T15:25:23.029Z,95582.27
2019-02-24T15:27:51.737Z,95582.22
2019-02-24T15:30:23.387Z,95579.81
2019-02-24T15:32:52.218Z,95576.13
2019-02-24T15:35:20.875Z,95577.66
2019-02-24T15:37:49.613Z,95586.58
2019-02-24T15:40:18.314Z,95580.98
2019-02-24T15:42:47.020Z,95576.98
2019-02-24T15:45:15.860Z,95579.99
2019-02-24T15:47:44.570Z,95574.58
2019-02-24T15:50:14.013Z,95571.61
2019-02-24T15:52:42.786Z,95576.52
2019-02-24T15:55:15.698Z,95576.77
2019-02-24T15:57:44.407Z,95578.71
2019-02-24T16:00:21.132Z,95585.76
2019-02-24T16:02:49.838Z,95581.71
2019-02-24T16:05:18.539Z,95583.02
2019-02-24T16:07:47.287Z,95585.72
2019-02-24T16:10:17.607Z,95589.33
2019-02-24T16:12:46.306Z,95586.14
2019-02-24T16:15:16.737Z,95589.22
2019-02-24T16:17:46.309Z,95594.58
2019-02-24T16:20:29.270Z,95593.41
2019-02-24T16:22:57.972Z,95599.17
2019-02-24T16:25:26.685Z,95597.19
2019-02-24T16:27:55.532Z,95596.37
2019-02-24T16:30:26.563Z,95595.24
2019-02-24T16:32:55.256Z,95608.22
2019-02-24T16:35:23.996Z,95611.88
2019-02-24T16:37:52.689Z,95614.53
2019-02-24T16:40:26.025Z,95617.30
2019-02-24T16:42:54.773Z,95613.85
2019-02-24T16:45:23.681Z,95619.47
2019-02-24T16:47:52.476Z,95618.64
2019-02-24T16:50:22.122Z,95620.91
2019-02-24T16:52:50.811Z,95623.78
2019-02-24T16:55:19.615Z,95623.38
2019-02-24T16:57:48.365Z,95628.52
2019-02-24T17:00:21.763Z,95630.97
2019-02-24T17:02:50.468Z,95642.78
2019-02-24T17:05:19.405Z,95637.96
2019-02-24T17:07:49.282Z,95631.77
2019-02-24T17:10:20.218Z,95623.98
2019-02-24T17:12:49.063Z,95628.64
2019-02-24T17:15:17.870Z,95630.70
2019-02-24T17:17:46.623Z,95632.66
2019-02-24T17:20:27.823Z,95622.37
2019-02-24T17:22:56.534Z,95625.78
2019-02-24T17:25:25.232Z,95615.89
2019-02-24T17:27:53.960Z,95619.20
2019-02-24T17:30:23.848Z,95629.71
2019-02-24T17:32:52.724Z,95622.15
2019-02-24T17:35:21.459Z,95622.82
2019-02-24T17:37:50.159Z,95618.45
2019-02-24T17:40:22.164Z,95621.66
2019-02-24T17:42:50.910Z,95620.84
2019-02-24T17:45:19.619Z,95621.62
2019-02-24T17:47:48.322Z,95619.61
2019-02-24T17:50:17.644Z,95619.26
2019-02-24T17:52:46.340Z,95625.48
2019-02-24T17:55:16.037Z,95623.89
2019-02-24T18:15:12.296Z,95634.98
2019-02-24T18:17:40.984Z,95648.29
2019-02-24T18:20:12.234Z,95645.95
2019-02-24T18:22:40.995Z,95649.08
2019-02-24T18:25:11.669Z,95653.30
2019-02-24T18:27:40.358Z,95645.09
2019-02-24T18:30:14.784Z,95647.23
2019-02-24T18:32:43.473Z,95640.77
2019-02-24T18:35:12.170Z,95640.77
2019-02-24T18:37:40.915Z,95644.05
2019-02-24T18:40:14.004Z,95644.61
2019-02-24T18:42:42.689Z,95645.75
2019-02-24T18:45:17.321Z,95644.09
2019-02-24T18:47:46.009Z,95645.53
2019-02-24T18:50:18.708Z,95652.03
2019-02-24T18:52:47.453Z,95661.22
2019-02-24T18:55:16.246Z,95653.41
2019-02-24T18:57:44.955Z,95657.56
2019-02-24T19:00:16.801Z,95656.27
2019-02-24T19:02:47.082Z,95660.33
2019-02-24T19:05:17.442Z,95657.27
2019-02-24T19:07:46.295Z,95655.92
2019-02-24T19:10:21.267Z,95656.60
2019-02-24T19:12:51.444Z,95659.20
2019-02-24T19:15:23.640Z,95655.70
2019-02-24T19:17:52.343Z,95654.14
2019-02-24T19:20:22.169Z,95659.20
2019-02-24T19:22:50.859Z,95660.72
2019-02-24T19:25:19.663Z,95655.02
2019-02-24T19:27:48.635Z,95657.05
2019-02-24T19:30:18.443Z,95658.36
2019-02-24T19:32:47.121Z,95661.31
2019-02-24T19:35:16.773Z,95657.56
2019-02-24T19:37:45.480Z,95653.38
2019-02-24T19:40:21.019Z,95659.90
2019-02-24T19:42:49.782Z,95661.88
2019-02-24T19:45:22.863Z,95665.73
2019-02-24T19:47:51.552Z,95657.35
2019-02-24T19:50:20.394Z,95653.09
2019-02-24T19:52:49.094Z,95659.16
2019-02-24T19:55:18.319Z,95650.29
2019-02-24T19:57:47.152Z,95648.47
2019-02-24T20:00:20.802Z,95642.19
2019-02-24T20:02:49.600Z,95643.84
2019-02-24T20:05:18.936Z,95638.05
2019-02-24T20:07:48.035Z,95629.78
2019-02-24T20:10:22.180Z,95636.20
2019-02-24T20:12:50.910Z,95634.16
2019-02-24T20:15:21.195Z,95630.42
2019-02-24T20:17:49.883Z,95628.60
2019-02-24T20:20:18.928Z,95633.20
2019-02-24T20:22:47.625Z,95635.06
2019-02-24T20:25:18.421Z,95634.17
2019-02-24T20:27:47.163Z,95628.42
2019-02-24T20:30:30.045Z,95631.66
2019-02-24T20:32:58.759Z,95630.45
2019-02-24T20:35:27.464Z,95633.39
2019-02-24T20:37:56.180Z,95632.89
2019-02-24T20:40:24.926Z,95632.98
2019-02-24T20:42:53.619Z,95640.69
2019-02-24T20:45:23.316Z,95637.73
2019-02-24T20:47:52.166Z,95642.88
2019-02-24T20:50:26.423Z,95638.78
2019-02-24T20:52:55.129Z,95643.00
2019-02-24T20:55:23.962Z,95632.78
2019-02-24T20:57:52.660Z,95638.05
2019-02-24T21:00:33.271Z,95642.41
2019-02-24T21:03:01.964Z,95641.52
2019-02-24T21:05:30.967Z,95638.10
2019-02-24T21:07:59.731Z,95636.45
2019-02-24T21:10:28.430Z,95631.31
2019-02-24T21:12:58.616Z,95626.83
2019-02-24T21:15:27.366Z,95624.21
2019-02-24T21:17:56.094Z,95625.91
2019-02-24T21:20:32.240Z,95624.80
2019-02-24T21:23:00.973Z,95633.04
2019-02-24T21:25:29.594Z,95627.95
2019-02-24T21:27:59.792Z,95623.30
2019-02-24T21:30:28.548Z,95622.50
2019-02-24T21:32:57.235Z,95614.82
2019-02-24T21:35:25.944Z,95619.73
2019-02-24T21:37:54.677Z,95613.99
2019-02-24T21:40:23.810Z,95616.27
2019-02-24T21:42:52.507Z,95618.28
2019-02-24T21:45:26.149Z,95619.25
2019-02-24T21:47:54.861Z,95616.74
2019-02-24T21:50:23.575Z,95618.88
2019-02-24T21:52:52.253Z,95625.27
2019-02-24T21:55:20.884Z,95626.79
2019-02-24T21:57:49.580Z,95629.84
2019-02-24T22:00:21.217Z,95625.83
2019-02-24T22:02:49.831Z,95631.80
2019-02-24T22:05:18.459Z,95622.82
2019-02-24T22:07:47.119Z,95628.79
2019-02-24T22:10:16.454Z,95634.46
2019-02-24T22:12:45.063Z,95638.78
2019-02-24T22:15:16.394Z,95640.55
2019-02-24T22:17:45.027Z,95638.78
2019-02-24T22:20:14.761Z,95632.30
2019-02-24T22:22:43.435Z,95631.95
2019-02-24T22:25:13.597Z,95629.78
2019-02-24T22:27:42.155Z,95628.40
2019-02-24T22:30:15.778Z,95633.25
2019-02-24T22:32:44.422Z,95627.08
2019-02-24T22:35:13.047Z,95622.48
2019-02-24T22:37:41.706Z,95628.69
2019-02-24T22:40:17.160Z,95626.67
2019-02-24T22:42:46.170Z,95631.78
2019-02-24T22:45:18.866Z,95626.50
2019-02-24T22:47:47.592Z,95623.25
2019-02-24T22:50:16.609Z,95623.19
2019-02-24T22:52:45.864Z,95630.80
2019-02-24T22:55:16.829Z,95633.61
2019-02-24T22:57:45.508Z,95625.72
2019-02-24T23:00:47.942Z,95631.13
2019-02-24T23:03:16.574Z,95635.92
2019-02-24T23:05:45.187Z,95628.18
2019-02-24T23:08:13.912Z,95638.08
2019-02-24T23:10:44.915Z,95644.77
2019-02-24T23:13:13.538Z,95627.09
2019-02-24T23:15:42.191Z,95628.97
2019-02-24T23:18:10.891Z,95636.45
2019-02-24T23:20:39.508Z,95638.08
2019-02-24T23:23:08.187Z,95632.50
2019-02-24T23:25:36.808Z,95637.39
2019-02-24T23:28:05.508Z,95630.92
2019-02-24T23:30:34.159Z,95628.79
2019-02-24T23:33:02.777Z,95627.23
2019-02-24T23:35:31.597Z,95620.04
2019-02-24T23:38:00.271Z,95619.49
2019-02-24T23:40:28.901Z,95619.70
2019-02-24T23:42:57.556Z,95615.27
2019-02-24T23:45:26.193Z,95625.45
2019-02-24T23:47:54.809Z,95611.19
2019-02-24T23:50:23.433Z,95613.27
2019-02-24T23:52:52.096Z,95610.09
2019-02-24T23:55:20.719Z,95613.24
2019-02-24T23:57:49.273Z,95616.18
